createdAt,value
2023-03-30T00:01:15.298Z,13.30
2023-03-30T00:04:04.634Z,13.30
2023-03-30T00:06:55.711Z,13.20
2023-03-30T00:09:44.804Z,13.20
2023-03-30T00:12:36.256Z,13.10
2023-03-30T00:15:26.283Z,13.00
2023-03-30T00:18:18.202Z,12.90
2023-03-30T00:21:09.644Z,12.90
2023-03-30T00:23:59.955Z,12.80
2023-03-30T00:26:48.976Z,12.70
2023-03-30T00:29:38.049Z,12.50
2023-03-30T00:32:27.415Z,12.40
2023-03-30T00:35:16.259Z,12.30
2023-03-30T00:38:06.360Z,12.10
2023-03-30T00:40:58.019Z,12.10
2023-03-30T00:44:01.068Z,12.10
2023-03-30T00:46:49.996Z,12.10
2023-03-30T00:49:38.835Z,12.10
2023-03-30T00:52:28.140Z,12.00
2023-03-30T00:55:17.036Z,12.00
2023-03-30T00:58:10.247Z,12.10
2023-03-30T01:01:01.750Z,12.10
2023-03-30T01:03:52.507Z,12.10
2023-03-30T01:06:43.693Z,12.10
2023-03-30T01:09:35.215Z,12.20
2023-03-30T01:12:24.230Z,12.30
2023-03-30T01:15:19.223Z,12.50
2023-03-30T01:18:24.347Z,12.50
2023-03-30T01:22:05.542Z,12.60
2023-03-30T01:25:23.154Z,12.70
2023-03-30T01:28:31.145Z,12.80
2023-03-30T01:31:40.468Z,12.90
2023-03-30T01:34:58.006Z,13.00
2023-03-30T01:38:18.696Z,13.20
2023-03-30T01:41:20.164Z,13.20
2023-03-30T01:44:16.780Z,13.20
2023-03-30T01:47:21.877Z,13.20
2023-03-30T01:50:15.620Z,13.20
2023-03-30T01:53:10.458Z,13.20
2023-03-30T01:56:04.728Z,13.30
2023-03-30T01:59:00.508Z,13.50
2023-03-30T02:01:54.422Z,13.70
2023-03-30T02:04:45.846Z,13.80
2023-03-30T02:07:38.254Z,13.70
2023-03-30T02:10:31.489Z,13.60
2023-03-30T02:13:21.313Z,13.40
2023-03-30T02:16:17.698Z,13.30
2023-03-30T02:19:08.007Z,13.20
2023-03-30T02:21:59.386Z,13.10
2023-03-30T02:24:51.793Z,13.00
2023-03-30T02:27:42.327Z,12.90
2023-03-30T02:30:34.500Z,12.90
2023-03-30T02:33:31.179Z,12.90
2023-03-30T02:36:35.725Z,13.10
2023-03-30T02:39:36.753Z,13.20
2023-03-30T02:42:51.183Z,13.20
2023-03-30T02:45:50.348Z,13.20
2023-03-30T02:48:51.402Z,13.20
2023-03-30T02:51:44.714Z,13.10
2023-03-30T02:54:42.667Z,13.10
2023-03-30T02:57:36.579Z,13.10
2023-03-30T03:00:29.707Z,13.10
2023-03-30T03:03:24.222Z,13.10
2023-03-30T03:06:17.187Z,12.80
2023-03-30T03:09:06.710Z,12.40
2023-03-30T03:11:55.930Z,12.20
2023-03-30T03:14:46.601Z,12.20
2023-03-30T03:17:35.802Z,12.10
2023-03-30T03:20:30.691Z,11.90
2023-03-30T03:23:21.135Z,11.60
2023-03-30T03:26:11.819Z,11.50
2023-03-30T03:31:42.921Z,11.20
2023-03-30T03:34:32.614Z,11.10
2023-03-30T03:37:21.544Z,11.00
2023-03-30T03:40:14.875Z,11.00
2023-03-30T03:43:03.896Z,10.90
2023-03-30T03:45:53.625Z,10.90
2023-03-30T03:48:53.536Z,10.90
2023-03-30T03:51:42.576Z,11.00
2023-03-30T03:54:38.389Z,11.10
2023-03-30T03:57:28.740Z,11.10
2023-03-30T04:00:17.765Z,11.20
2023-03-30T04:03:07.822Z,11.30
2023-03-30T04:06:02.446Z,11.40
2023-03-30T04:08:51.442Z,11.60
2023-03-30T04:11:51.360Z,11.60
2023-03-30T04:14:41.589Z,11.60
2023-03-30T04:17:37.376Z,11.70
2023-03-30T04:20:27.469Z,11.60
2023-03-30T04:26:35.658Z,11.60
2023-03-30T04:29:29.941Z,11.60
2023-03-30T04:32:21.130Z,11.60
2023-03-30T04:41:20.404Z,11.70
2023-03-30T04:44:10.475Z,11.70
2023-03-30T04:46:59.389Z,11.70
2023-03-30T04:49:49.697Z,11.80
2023-03-30T04:52:38.540Z,11.80
2023-03-30T04:58:10.905Z,11.90
2023-03-30T05:00:59.816Z,12.00
2023-03-30T05:03:48.692Z,12.10
2023-03-30T05:06:44.363Z,12.20
2023-03-30T05:09:41.127Z,12.20
2023-03-30T05:12:30.035Z,12.20
2023-03-30T05:15:19.105Z,12.20
2023-03-30T05:18:11.511Z,12.20
2023-03-30T05:21:01.425Z,12.10
2023-03-30T05:23:53.040Z,12.10
2023-03-30T05:26:42.188Z,12.10
2023-03-30T05:29:31.580Z,12.00
2023-03-30T05:37:40.900Z,11.90
2023-03-30T05:40:38.204Z,11.80
2023-03-30T05:43:27.036Z,11.90
2023-03-30T05:46:16.820Z,12.00
2023-03-30T05:49:05.740Z,12.00
2023-03-30T05:51:54.597Z,12.10
2023-03-30T05:54:43.369Z,12.10
2023-03-30T05:57:34.276Z,12.10
2023-03-30T06:00:23.917Z,12.00
2023-03-30T06:03:13.580Z,12.00
2023-03-30T06:06:02.557Z,12.00
2023-03-30T06:08:54.361Z,12.00
2023-03-30T06:11:46.668Z,12.00
2023-03-30T06:14:36.997Z,11.90
2023-03-30T06:17:26.500Z,11.90
2023-03-30T06:20:21.763Z,11.80
2023-03-30T06:23:10.740Z,11.80
2023-03-30T06:25:59.928Z,11.70
2023-03-30T06:28:48.762Z,11.60
2023-03-30T06:31:39.134Z,11.60
2023-03-30T06:34:28.078Z,11.50
2023-03-30T06:37:47.961Z,11.50
2023-03-30T06:40:37.223Z,11.40
2023-03-30T06:43:27.579Z,11.50
2023-03-30T06:46:16.729Z,11.50
2023-03-30T06:49:07.570Z,11.50
2023-03-30T06:51:56.461Z,11.60
2023-03-30T07:29:44.019Z,11.90
2023-03-30T07:32:33.115Z,11.90
2023-03-30T07:38:03.984Z,12.20
2023-03-30T07:40:54.757Z,12.40
2023-03-30T07:49:13.864Z,12.80
2023-03-30T07:52:03.119Z,12.70
2023-03-30T08:00:50.733Z,12.80
2023-03-30T08:15:32.329Z,13.40
2023-03-30T08:18:42.847Z,13.60
2023-03-30T08:21:33.299Z,14.50
2023-03-30T08:32:39.665Z,16.50
2023-03-30T08:35:33.100Z,15.80
2023-03-30T08:38:26.282Z,14.50
2023-03-30T08:41:35.868Z,14.10
2023-03-30T08:44:39.933Z,13.70
2023-03-30T08:47:38.434Z,13.40
2023-03-30T08:53:41.478Z,13.00
2023-03-30T08:56:33.277Z,13.00
2023-03-30T08:59:34.688Z,13.00
2023-03-30T09:02:43.422Z,13.00
2023-03-30T09:14:34.753Z,13.20
2023-03-30T09:17:29.110Z,13.30
2023-03-30T09:20:45.920Z,13.40
2023-03-30T09:33:09.001Z,13.10
2023-03-30T09:36:17.550Z,13.00
2023-03-30T09:42:38.604Z,13.00
2023-03-30T09:45:33.615Z,13.00
2023-03-30T09:48:21.566Z,13.30
2023-03-30T09:51:19.518Z,13.40
2023-03-30T09:54:38.566Z,13.40
2023-03-30T09:58:11.930Z,13.50
2023-03-30T10:01:09.111Z,13.90
2023-03-30T10:04:10.164Z,14.70
2023-03-30T10:07:22.530Z,15.10
2023-03-30T10:13:05.680Z,15.60
2023-03-30T10:15:55.720Z,15.50
2023-03-30T10:18:48.161Z,14.90
2023-03-30T10:25:32.940Z,14.50
2023-03-30T10:36:25.611Z,15.60
2023-03-30T10:39:19.601Z,15.40
2023-03-30T10:42:10.544Z,15.20
2023-03-30T10:45:04.520Z,15.70
2023-03-30T10:48:13.891Z,16.30
2023-03-30T10:51:11.679Z,15.60
2023-03-30T10:54:13.041Z,14.90
2023-03-30T10:57:08.472Z,14.70
2023-03-30T11:03:09.332Z,15.60
2023-03-30T11:12:27.715Z,15.20
2023-03-30T12:43:09.974Z,14.60
2023-03-30T12:54:40.581Z,16.70
2023-03-30T13:05:44.305Z,12.80
2023-03-30T13:08:37.122Z,12.40
2023-03-30T13:11:25.935Z,12.10
2023-03-30T13:14:27.729Z,11.90
2023-03-30T13:17:19.976Z,11.90
2023-03-30T13:20:29.938Z,12.00
2023-03-30T13:23:33.860Z,12.20
2023-03-30T13:26:34.921Z,12.20
2023-03-30T13:29:31.201Z,12.00
2023-03-30T13:32:26.722Z,12.00
2023-03-30T13:35:43.262Z,11.90
2023-03-30T13:38:56.735Z,11.70
2023-03-30T13:41:56.383Z,11.40
2023-03-30T13:44:56.770Z,11.20
2023-03-30T13:47:57.806Z,11.30
2023-03-30T13:51:15.498Z,12.60
2023-03-30T13:54:18.151Z,13.80
2023-03-30T13:57:12.288Z,13.80
2023-03-30T14:00:08.272Z,13.40
2023-03-30T14:02:57.985Z,13.20
2023-03-30T14:05:47.686Z,13.70
2023-03-30T14:08:40.011Z,14.40
2023-03-30T14:11:35.228Z,16.30
2023-03-30T14:14:28.196Z,17.40
2023-03-30T14:17:22.156Z,16.20
2023-03-30T14:32:08.306Z,19.20
2023-03-30T14:36:05.852Z,18.20
2023-03-30T14:46:30.269Z,16.10
2023-03-30T14:52:17.576Z,14.40
2023-03-30T15:00:52.676Z,16.00
2023-03-30T15:04:11.608Z,16.70
2023-03-30T15:07:01.064Z,16.70
2023-03-30T15:09:57.790Z,15.90
2023-03-30T15:16:07.837Z,14.20
2023-03-30T15:19:06.727Z,13.60
2023-03-30T15:22:00.299Z,13.40
2023-03-30T15:24:49.478Z,13.20
2023-03-30T15:27:44.525Z,13.10
2023-03-30T15:36:25.467Z,13.50
2023-03-30T15:39:34.248Z,13.60
2023-03-30T15:42:29.832Z,13.50
2023-03-30T15:45:18.921Z,13.20
2023-03-30T15:48:12.853Z,13.10
2023-03-30T15:51:07.277Z,13.20
2023-03-30T15:54:00.451Z,13.30
2023-03-30T15:57:08.934Z,13.40
2023-03-30T16:00:01.611Z,13.30
2023-03-30T16:02:59.254Z,13.30
2023-03-30T16:05:48.122Z,13.20
2023-03-30T16:08:43.571Z,13.20
2023-03-30T16:11:32.499Z,13.00
2023-03-30T16:14:23.270Z,12.90
2023-03-30T16:17:21.633Z,12.90
2023-03-30T16:20:22.039Z,13.10
2023-03-30T16:23:11.222Z,13.00
2023-03-30T16:26:01.982Z,12.90
2023-03-30T16:31:35.389Z,12.50
2023-03-30T16:34:25.204Z,12.40
2023-03-30T16:42:57.836Z,12.20
2023-03-30T16:48:38.288Z,12.10
2023-03-30T16:51:27.214Z,11.90
2023-03-30T16:54:29.569Z,11.80
2023-03-30T16:57:19.780Z,11.90
2023-03-30T17:00:20.561Z,11.90
2023-03-30T17:05:52.650Z,11.80
2023-03-30T17:14:20.487Z,11.80
2023-03-30T17:17:09.423Z,11.80
2023-03-30T17:20:01.038Z,11.70
2023-03-30T17:22:47.179Z,11.60
2023-03-30T17:25:39.855Z,11.40
2023-03-30T17:32:00.542Z,11.30
2023-03-30T17:34:52.552Z,11.20
2023-03-30T17:40:21.564Z,11.20
2023-03-30T17:43:11.067Z,11.20
2023-03-30T17:46:00.072Z,11.20
2023-03-30T17:48:51.482Z,11.20
2023-03-30T17:54:15.756Z,11.20
2023-03-30T17:57:06.274Z,11.30
2023-03-30T18:05:19.571Z,11.00
2023-03-30T18:08:11.461Z,10.90
2023-03-30T18:11:07.291Z,10.80
2023-03-30T18:14:12.057Z,10.70
2023-03-30T18:17:06.598Z,10.60
2023-03-30T18:19:56.304Z,10.60
2023-03-30T18:22:45.289Z,10.60
2023-03-30T18:25:42.016Z,10.60
2023-03-30T18:28:32.091Z,10.50
2023-03-30T18:31:22.412Z,10.50
2023-03-30T18:34:11.353Z,10.40
2023-03-30T18:37:00.101Z,10.40
2023-03-30T18:39:58.502Z,10.30
2023-03-30T18:48:14.073Z,10.30
2023-03-30T18:54:32.408Z,10.20
2023-03-30T18:57:21.337Z,10.10
2023-03-30T19:00:27.414Z,9.90
2023-03-30T19:03:21.849Z,9.90
2023-03-30T19:06:14.018Z,9.80
2023-03-30T19:09:07.515Z,9.70
2023-03-30T19:11:58.738Z,9.70
2023-03-30T19:14:47.428Z,9.60
2023-03-30T19:17:36.108Z,9.60
2023-03-30T19:20:27.636Z,9.60
2023-03-30T19:23:17.344Z,9.60
2023-03-30T19:26:06.076Z,9.70
2023-03-30T19:28:54.775Z,9.90
2023-03-30T19:31:43.484Z,9.90
2023-03-30T19:34:32.130Z,10.00
2023-03-30T19:37:22.395Z,10.10
2023-03-30T19:40:16.405Z,10.10
2023-03-30T19:43:05.149Z,10.20
2023-03-30T19:45:53.947Z,10.30
2023-03-30T19:48:43.182Z,10.30
2023-03-30T19:51:32.391Z,10.30
2023-03-30T19:54:22.500Z,10.30
2023-03-30T19:57:12.610Z,10.20
2023-03-30T20:00:01.354Z,10.20
2023-03-30T20:02:51.992Z,10.10
2023-03-30T20:05:40.897Z,10.00
2023-03-30T20:08:29.583Z,10.10
2023-03-30T20:11:19.706Z,10.00
2023-03-30T20:14:08.900Z,10.00
2023-03-30T20:16:58.230Z,10.00
2023-03-30T20:19:46.923Z,10.00
2023-03-30T20:22:36.208Z,10.00
2023-03-30T20:25:25.565Z,10.00
2023-03-30T20:28:15.764Z,10.00
2023-03-30T20:31:04.735Z,10.10
2023-03-30T20:33:54.753Z,10.20
2023-03-30T20:36:44.952Z,10.20
2023-03-30T20:39:34.332Z,10.20
2023-03-30T20:42:26.533Z,10.20
2023-03-30T20:45:17.781Z,10.20
2023-03-30T20:48:16.391Z,10.20
2023-03-30T20:51:05.534Z,10.10
2023-03-30T20:53:54.313Z,10.10
2023-03-30T20:56:43.559Z,10.10
2023-03-30T20:59:32.305Z,10.10
2023-03-30T21:02:22.683Z,10.10
2023-03-30T21:05:11.572Z,10.00
2023-03-30T21:08:00.313Z,10.00
2023-03-30T21:10:49.119Z,10.00
2023-03-30T21:13:37.980Z,10.00
2023-03-30T21:16:27.111Z,10.00
2023-03-30T21:19:17.241Z,10.00
2023-03-30T21:22:06.138Z,10.00
2023-03-30T21:24:54.830Z,10.00
2023-03-30T21:27:43.521Z,10.00
2023-03-30T21:30:33.446Z,10.00
2023-03-30T21:33:22.363Z,9.90
2023-03-30T21:36:13.189Z,9.90
2023-03-30T21:39:01.938Z,9.90
2023-03-30T21:41:51.424Z,9.90
2023-03-30T21:44:40.030Z,9.80
2023-03-30T21:47:28.750Z,9.80
2023-03-30T21:50:17.694Z,9.70
2023-03-30T21:53:07.764Z,9.60
2023-03-30T21:55:56.521Z,9.50
2023-03-30T21:58:45.470Z,9.50
2023-03-30T22:01:34.236Z,9.40
2023-03-30T22:04:22.960Z,9.40
2023-03-30T22:07:11.741Z,9.30
2023-03-30T22:10:01.737Z,9.30
2023-03-30T22:12:50.505Z,9.30
2023-03-30T22:15:39.258Z,9.30
2023-03-30T22:18:28.028Z,9.30
2023-03-30T22:21:19.205Z,9.30
2023-03-30T22:24:09.228Z,9.30
2023-03-30T22:26:59.404Z,9.30
2023-03-30T22:29:48.153Z,9.30
2023-03-30T22:32:36.883Z,9.30
2023-03-30T22:35:25.628Z,9.30
2023-03-30T22:38:15.403Z,9.30
2023-03-30T22:41:07.543Z,9.30
2023-03-30T22:43:59.302Z,9.30
2023-03-30T22:46:47.976Z,9.30
2023-03-30T22:49:37.097Z,9.30
2023-03-30T22:52:25.868Z,9.30
2023-03-30T22:55:14.816Z,9.30
2023-03-30T22:58:03.775Z,9.30
2023-03-30T23:00:54.015Z,9.20
2023-03-30T23:03:43.254Z,9.20
2023-03-30T23:06:33.888Z,9.20
2023-03-30T23:09:23.075Z,9.10
2023-03-30T23:12:11.802Z,9.10
2023-03-30T23:15:00.960Z,9.00
2023-03-30T23:17:51.285Z,9.10
2023-03-30T23:20:39.956Z,9.10
2023-03-30T23:23:28.655Z,9.10
2023-03-30T23:26:17.350Z,9.10
2023-03-30T23:29:07.378Z,9.10
2023-03-30T23:31:56.340Z,9.10
2023-03-30T23:34:46.758Z,9.10
2023-03-30T23:37:37.017Z,9.10
2023-03-30T23:40:26.119Z,9.10
2023-03-30T23:43:14.769Z,9.10
2023-03-30T23:46:03.746Z,9.10
2023-03-30T23:48:52.606Z,9.10
2023-03-30T23:51:42.681Z,9.20
2023-03-30T23:54:32.089Z,9.10
2023-03-30T23:57:21.546Z,9.10
